Station DPOA2 - Dutch Harbor Port Office, AK Image indicating link to RSS feed of recent meteorological observations for station DPOA2


Conditions at DPOA2 as of
(5:24 am AKDT)
1324 GMT on 04/18/2024:
Note: This report is more than two hours old
     

Click on the graph icon in the table below to see a time series plot of the last five days of that observation.

5-day plot - Wind Direction Wind Direction (WDIR): S ( 170 deg true )
5-day plot - Wind Speed Wind Speed (WSPD): 9 kts
5-day plot - Wind Gust Wind Gust (GST): 23 kts
5-day plot - Air Temperature Air Temperature (ATMP): 32.2 °F
5-day plot - Dew Point Dew Point (DEWP): 28.8 °F
5-day plot - Wind Chill Wind Chill (CHILL): 23.7 °F
5-day plot - Wind Speed at 10 Meters Wind Speed at 10 meters (WSPD10M): 10 kts
5-day plot - Wind Speed at 20 Meters Wind Speed at 20 meters (WSPD20M): 10 kts
5-day plot -  Wind Speed, Wind Gust and Atmospheric Pressure Combined plot of Wind Speed, Gust, and Air Pressure
Previous observations
TIME
(AKDT)
5-day plot - Wind Direction
WDIR
 
5-day plot - Wind Speed
WSPD
kts
5-day plot - Wind Gust
GST
kts
5-day plot - Wave Height
WVHT
ft
5-day plot - Dominant Wave Period
DPD
sec
5-day plot - Average Wave Period
APD
sec
5-day plot - Mean Wave Direction
MWD
 
5-day plot - Atmospheric Pressure
PRES
in
5-day plot - Pressure Tendency
PTDY
in
5-day plot - Air Temperature
ATMP
°F
5-day plot - Water Temperature
WTMP
°F
5-day plot - Dew Point
DEWP
°F
5-day plot - Salinity
SAL
psu
5-day plot - Visibility
VIS
nmi
5-day plot - Tide (above MLLW)
TIDE
ft
2024-04-18 05:15 amSSW 12 39------ 32.2- 28.8---
2024-04-18 05:04 am SE 13 33------ 32.7- 29.1---
2024-04-18 04:54 amSSE 13 35------ 32.7- 29.3---
2024-04-18 04:44 am SE 9 27------ 32.9- 29.5---
2024-04-18 04:34 amESE 11 31------ 32.9- 29.5---
2024-04-18 04:24 am SE 12 29------ 33.3- 29.7---
2024-04-18 04:14 amSSE 9 24------ 33.4- 29.7---
2024-04-18 04:04 amSSE 14 37------ 33.6- 29.8---
2024-04-18 03:54 am S 12 34------ 33.4- 29.7---
2024-04-18 03:44 am SE 12 30------ 33.6- 29.8---
2024-04-18 03:34 am S 11 28------ 33.6- 30.0---
2024-04-18 03:24 am S 14 37------ 33.4- 30.0---
2024-04-18 03:14 am SE 14 35------ 33.6- 30.2---
2024-04-18 03:04 amSSE 12 26------ 33.6- 30.4---
2024-04-18 02:54 amSSE 12 33------ 33.6- 30.2---
2024-04-18 02:44 am SE 13 45------ 33.6- 30.4---
2024-04-18 02:34 amSSE 12 31------ 33.8- 30.2---
2024-04-18 02:24 amSSW 14 34------ 33.4- 30.0---
2024-04-18 02:15 am SE 17 41------ 33.4- 30.0---
2024-04-18 02:04 amSSE 14 38------ 33.4- 30.2---
2024-04-18 01:54 am SE 13 38------ 33.4- 30.2---
2024-04-18 01:44 am S 12 33------ 33.4- 30.2---
2024-04-18 01:34 am S 14 46------ 33.4- 30.2---
2024-04-18 01:24 amSSE 14 41------ 33.4- 30.6---
2024-04-18 01:14 amSSE 13 31------ 33.6- 30.4---
2024-04-18 01:04 amSSE 14 35------ 33.6- 30.4---
2024-04-18 12:54 amSSW 13 34------ 33.3- 30.0---
2024-04-18 12:44 amSSE 13 36------ 33.4- 30.0---
2024-04-18 12:34 am S 13 31------ 33.4- 30.0---
2024-04-18 12:25 amSSE 11 33------ 33.8- 30.4---
2024-04-18 12:15 amSSE 13 34------ 33.8- 30.4---
2024-04-18 12:04 am S 12 33------ 33.6- 30.2---
2024-04-17 11:54 pm SE 12 34------ 34.0- 30.6---
2024-04-17 11:44 pm S 12 31------ 33.8- 30.4---
2024-04-17 11:34 pmSSE 14 38------ 33.6- 30.2---
2024-04-17 11:24 pm SE 13 34------ 33.6- 30.4---
2024-04-17 11:14 pm S 13 35------ 33.4- 30.4---
2024-04-17 11:04 pm S 11 40------ 33.6- 30.2---
2024-04-17 10:54 pmSSE 11 32------ 33.6- 30.0---
2024-04-17 10:44 pm S 11 31------ 33.4- 29.7---
2024-04-17 10:34 pmSSE 14 33------ 33.4- 29.8---
2024-04-17 10:24 pm SE 11 33------ 33.3- 29.5---
2024-04-17 10:14 pm S 13 30------ 33.3- 29.5---
2024-04-17 10:04 pm SE 10 27------ 33.3- 29.3---
2024-04-17 09:54 pmSSE 10 27------ 33.1- 28.8---
2024-04-17 09:44 pm S 11 36------ 32.9- 28.8---
2024-04-17 09:34 pm SE 12 29------ 33.1- 28.8---
2024-04-17 09:24 pm S 10 36------ 32.7- 28.8---
2024-04-17 09:14 pmSSE 8 24------ 32.9- 28.8---
2024-04-17 09:05 pmESE 9 24------ 32.7- 28.2---
2024-04-17 08:54 pmSSE 9 27------ 32.5- 28.2---
2024-04-17 08:44 pm S 7 18------ 32.7- 28.0---
2024-04-17 08:35 pmSSE 8 23------ 32.5- 27.9---
2024-04-17 08:25 pm S 8 26------ 32.7- 27.9---
2024-04-17 08:15 pm E 10 27------ 32.7- 27.5---
2024-04-17 08:05 pmESE 7 24------ 32.4- 27.5---
2024-04-17 07:54 pmSSE 10 26------ 32.2- 27.5---
2024-04-17 07:44 pm NE 8 26------ 32.2- 27.0---
2024-04-17 07:34 pm SW 11 33------ 32.4- 26.6---
2024-04-17 07:24 pm W 8 21------ 32.5- 26.4---
2024-04-17 07:14 pm SW 10 24------ 32.4- 26.4---
2024-04-17 07:04 pm SW 6 15------ 32.2- 26.4---
2024-04-17 06:54 pm S 10 26------ 32.0- 26.8---
2024-04-17 06:44 pm NW 6 19------ 31.8- 26.6---
2024-04-17 06:34 pmWNW 11 34------ 31.6- 26.4---
2024-04-17 06:24 pm W 7 33------ 31.3- 26.8---
2024-04-17 06:14 pm NE 9 35------ 31.5- 26.8---
2024-04-17 06:04 pm SW 14 35------ 30.9- 26.6---
2024-04-17 05:54 pm SW 11 32------ 30.4- 26.8---
2024-04-17 05:44 pm SW 7 26------ 30.2- 26.8---
2024-04-17 05:34 pmSSW 12 38------ 30.0- 27.0---
2024-04-17 05:24 pm SW 12 40------ 30.4- 26.4---
2024-04-17 05:15 pm SW 13 39------ 30.7- 26.1---
2024-04-17 05:04 pm SW 11 41------ 30.7- 25.9---
2024-04-17 04:34 pm SW 15 38------ 30.7- 25.0---
2024-04-17 04:24 pmSSW 14 45------ 30.7- 25.0---
2024-04-17 04:14 pmWSW 10 37------ 30.6- 25.2---
2024-04-17 03:54 pm SW 11 33------ 30.7- 25.2---
2024-04-17 03:44 pmSSW 14 34------ 30.6- 25.3---
2024-04-17 03:34 pmWSW 12 44------ 30.6- 25.3---
2024-04-17 03:24 pm SW 14 36------ 30.7- 25.3---
2024-04-17 03:15 pm W 9 35------ 30.7- 24.8---
2024-04-17 03:04 pm SW 8------- 30.4- 25.2---
2024-04-17 02:54 pm W 10------- 30.4- 25.3---
2024-04-17 02:44 pm SW 14 65------ 30.4- 25.2---
2024-04-17 02:34 pm SW 9 37------ 30.6- 25.2---
2024-04-17 02:25 pmWSW 11 29------ 30.6- 24.8---
2024-04-17 02:14 pm NE 9 29------ 30.4- 25.2---
2024-04-17 01:54 pmSSW 13 45------ 30.2- 25.3---
2024-04-17 01:44 pmWSW 10 38------ 30.4- 25.2---
2024-04-17 01:34 pmWSW 8 36------ 30.4- 25.0---
2024-04-17 01:24 pmSSW 10 32------ 30.4- 25.2---
2024-04-17 01:14 pm SW 11 34------ 30.4- 25.3---
2024-04-17 01:04 pm SW 12 32------ 30.2- 25.3---
2024-04-17 12:44 pmSSW 13 42------ 30.4- 25.0---
2024-04-17 12:34 pm S 12 27------ 30.4- 25.2---
2024-04-17 12:24 pmWSW 11 40------ 30.7- 24.6---
2024-04-17 12:14 pmESE 11 31------ 30.9- 24.6---
2024-04-17 12:04 pmENE 8 19------ 30.7- 24.6---
2024-04-17 11:54 amSSW 14 34------ 30.6- 25.0---
2024-04-17 11:44 am SW 11 35------ 30.4- 25.5---
2024-04-17 11:34 amSSW 7 23------ 30.4- 25.3---
2024-04-17 11:25 am N 8 19------ 30.2- 25.3---
2024-04-17 11:14 amWSW 8 30------ 30.4- 25.5---
2024-04-17 11:04 amSSW 11 40------ 30.0- 25.5---
2024-04-17 10:54 am SW 14 35------ 30.6- 25.5---
2024-04-17 10:44 am S 8 25------ 31.1- 25.3---
2024-04-17 10:34 am SE 8 26------ 31.3- 25.2---
2024-04-17 10:24 am SE 6 16------ 31.1- 25.5---
2024-04-17 10:14 amSSE 10 27------ 30.9- 26.1---
2024-04-17 10:04 am SW 11 36------ 30.6- 26.4---
2024-04-17 09:54 amSSW 12 36------ 30.9- 26.6---
2024-04-17 09:44 amSSE 13 32------ 31.1- 26.4---
2024-04-17 09:34 amSSE 10 37------ 30.9- 26.2---
2024-04-17 09:24 amSSE 13 44------ 31.3- 26.6---
2024-04-17 09:14 am NE 8 27------ 31.3- 27.0---
2024-04-17 09:04 amWSW 10 35------ 30.9- 27.0---